Time;durP1;ratioP1;P1;durP2;ratioP2;P2;SDS_P1;SDS_P2;PMS_P1;PMS_P2;Temp;Humidity;BMP_temperature;BMP_pressure;BME280_temperature;BME280_humidity;BME280_pressure;Samples;Min_cycle;Max_cycle;Signal;HPM_P1;HPM_P2
2022/10/18 00:00:59;;;;;;;51.33;22.23;;;12.90;99.90;;;;;;5108142;28;20400;-79
2022/10/18 00:03:25;;;;;;;68.85;23.55;;;12.90;99.90;;;;;;5108541;28;20913;-79
2022/10/18 00:05:51;;;;;;;61.20;23.35;;;12.90;99.90;;;;;;5107846;28;20397;-79
2022/10/18 00:08:17;;;;;;;58.15;22.15;;;13.00;99.90;;;;;;5106823;28;20396;-80
2022/10/18 00:10:43;;;;;;;57.20;22.93;;;12.90;99.90;;;;;;5107479;28;20392;-79
2022/10/18 00:13:09;;;;;;;51.63;20.07;;;12.90;99.90;;;;;;5107171;28;20824;-79
2022/10/18 00:15:35;;;;;;;55.97;22.42;;;12.90;99.90;;;;;;5107226;28;21589;-79
2022/10/18 00:18:01;;;;;;;50.90;20.63;;;12.90;99.90;;;;;;5106877;28;20420;-79
2022/10/18 00:20:26;;;;;;;47.63;19.33;;;12.90;99.90;;;;;;5107095;28;20828;-79
2022/10/18 00:22:52;;;;;;;54.80;20.52;;;12.90;99.90;;;;;;5107081;28;20389;-80
2022/10/18 00:25:18;;;;;;;46.20;19.08;;;12.90;99.90;;;;;;5107146;28;20404;-79
2022/10/18 00:27:44;;;;;;;47.22;19.00;;;12.90;99.90;;;;;;5107263;28;20392;-79
2022/10/18 00:30:10;;;;;;;52.00;19.97;;;12.90;99.90;;;;;;5106914;28;20989;-79
2022/10/18 00:32:40;;;;;;;50.70;19.52;;;12.90;99.90;;;;;;5105275;28;20419;-79
2022/10/18 00:35:07;;;;;;;52.15;20.35;;;13.00;99.90;;;;;;5106969;28;20401;-80
2022/10/18 00:37:33;;;;;;;44.30;18.13;;;12.90;99.90;;;;;;5107058;28;20536;-79
2022/10/18 00:39:58;;;;;;;48.67;18.42;;;12.90;99.90;;;;;;5107270;28;20475;-79
2022/10/18 00:42:35;;;;;;;50.05;18.33;;;12.90;99.90;;;;;;5106698;28;20465;-79
2022/10/18 00:45:29;;;;;;;52.10;19.20;;;12.80;99.90;;;;;;5107217;28;20434;-79
2022/10/18 00:47:58;;;;;;;51.47;18.87;;;12.80;99.90;;;;;;5097276;28;20408;-80
2022/10/18 00:50:25;;;;;;;49.43;19.53;;;12.80;99.90;;;;;;5108047;28;20426;-78
2022/10/18 00:52:57;;;;;;;99.33;25.60;;;12.70;99.90;;;;;;5111479;28;20396;-79
2022/10/18 00:55:23;;;;;;;120.07;24.60;;;12.70;99.90;;;;;;5111405;27;20396;-79
2022/10/18 00:57:50;;;;;;;158.68;27.40;;;12.70;99.90;;;;;;5111857;28;20424;-79
2022/10/18 01:00:16;;;;;;;124.03;23.30;;;12.70;99.90;;;;;;5109709;28;20404;-79
2022/10/18 01:02:45;;;;;;;155.60;27.58;;;12.80;99.90;;;;;;5111966;28;20403;-79
2022/10/18 01:05:16;;;;;;;153.90;27.10;;;12.80;99.90;;;;;;5111467;28;20392;-79
2022/10/18 01:08:35;;;;;;;192.82;30.80;;;12.80;99.90;;;;;;5111245;28;20727;-79
2022/10/18 01:11:17;;;;;;;164.90;28.48;;;12.80;99.90;;;;;;5082797;28;20414;-80
2022/10/18 01:14:24;;;;;;;158.70;28.50;;;12.80;99.90;;;;;;5101292;28;20462;-79
2022/10/18 01:16:52;;;;;;;178.05;29.13;;;12.80;99.90;;;;;;5111326;28;20461;-79
2022/10/18 01:19:36;;;;;;;179.93;30.25;;;12.80;99.90;;;;;;5109609;28;20925;-79
2022/10/18 01:22:10;;;;;;;246.48;33.20;;;12.90;99.90;;;;;;5109871;28;20424;-79
2022/10/18 01:25:00;;;;;;;232.15;34.28;;;12.90;99.90;;;;;;5108450;28;20478;-79
2022/10/18 01:27:45;;;;;;;221.77;34.03;;;12.90;99.90;;;;;;5109432;28;20404;-79
2022/10/18 01:30:26;;;;;;;174.43;29.20;;;13.00;99.90;;;;;;5109485;28;20431;-79
2022/10/18 01:32:57;;;;;;;155.60;30.87;;;12.90;99.90;;;;;;5096214;28;20500;-79
2022/10/18 01:35:30;;;;;;;257.17;36.70;;;13.00;99.90;;;;;;5110292;28;20411;-79
2022/10/18 01:38:00;;;;;;;150.85;28.55;;;13.00;99.90;;;;;;5109245;28;20424;-79
2022/10/18 01:40:27;;;;;;;159.68;30.48;;;13.00;99.90;;;;;;5109057;28;20980;-79
2022/10/18 01:42:53;;;;;;;233.85;35.67;;;13.00;99.90;;;;;;5109578;28;20412;-79
2022/10/18 01:45:22;;;;;;;253.17;37.10;;;13.10;99.90;;;;;;5110033;28;20438;-79
2022/10/18 01:47:48;;;;;;;175.82;33.45;;;13.10;99.90;;;;;;5110488;28;20457;-79
2022/10/18 01:50:14;;;;;;;287.43;39.27;;;13.10;99.90;;;;;;5110239;28;20407;-79
2022/10/18 01:52:48;;;;;;;245.23;37.00;;;13.10;99.90;;;;;;5110637;28;20566;-79
2022/10/18 01:55:14;;;;;;;247.70;34.92;;;13.10;99.90;;;;;;5110029;27;20815;-79
2022/10/18 01:57:50;;;;;;;257.83;36.25;;;13.10;99.90;;;;;;5109147;28;20824;-79
2022/10/18 02:00:22;;;;;;;201.98;31.25;;;13.20;99.90;;;;;;5109253;28;20413;-79
2022/10/18 02:02:52;;;;;;;271.30;37.83;;;13.10;99.90;;;;;;5101731;28;20412;-79
2022/10/18 02:05:27;;;;;;;251.80;35.53;;;13.20;99.90;;;;;;5108686;28;20979;-79
2022/10/18 02:08:10;;;;;;;199.45;32.30;;;13.20;99.90;;;;;;5110206;28;20489;-79
2022/10/18 02:10:59;;;;;;;325.75;40.92;;;13.20;99.90;;;;;;5109416;28;20427;-79
2022/10/18 02:13:31;;;;;;;247.48;34.60;;;13.20;99.90;;;;;;5107957;28;20452;-79
2022/10/18 02:16:02;;;;;;;274.77;37.15;;;13.20;99.90;;;;;;5110089;28;20464;-78
2022/10/18 02:18:34;;;;;;;312.88;38.85;;;13.20;99.90;;;;;;5108352;28;20468;-79
2022/10/18 02:21:04;;;;;;;189.60;31.83;;;13.20;99.90;;;;;;5108519;28;20407;-79
2022/10/18 02:23:31;;;;;;;262.00;34.97;;;13.20;99.90;;;;;;5091450;28;20404;-79
2022/10/18 02:25:57;;;;;;;247.52;35.33;;;13.20;99.90;;;;;;5107392;28;20415;-79
2022/10/18 02:28:22;;;;;;;271.20;37.20;;;13.20;99.90;;;;;;5097970;28;20404;-79
2022/10/18 02:31:16;;;;;;;203.63;29.90;;;13.20;99.90;;;;;;5108603;28;21213;-79
2022/10/18 02:34:03;;;;;;;248.15;35.10;;;13.20;99.90;;;;;;5108522;28;20864;-79
2022/10/18 02:37:04;;;;;;;305.85;38.47;;;13.20;99.90;;;;;;5096158;28;20462;-79
2022/10/18 02:39:33;;;;;;;156.60;29.48;;;13.20;99.90;;;;;;5062410;28;20411;-79
2022/10/18 02:42:00;;;;;;;235.50;31.93;;;13.20;99.90;;;;;;5100383;28;20990;-79
2022/10/18 02:44:25;;;;;;;263.83;37.00;;;13.10;99.90;;;;;;5108081;28;20396;-79
2022/10/18 02:46:51;;;;;;;151.38;28.48;;;13.10;99.90;;;;;;5108644;28;20420;-79
2022/10/18 02:49:17;;;;;;;224.65;35.05;;;13.20;99.90;;;;;;5108155;28;20412;-79
2022/10/18 02:51:43;;;;;;;243.85;36.50;;;13.10;99.90;;;;;;5107798;28;20400;-79
2022/10/18 02:54:08;;;;;;;151.43;28.57;;;13.10;99.90;;;;;;5109315;28;20397;-79
2022/10/18 02:56:34;;;;;;;169.23;31.17;;;13.10;99.90;;;;;;5108110;28;20461;-78
2022/10/18 02:59:00;;;;;;;164.87;29.90;;;13.00;99.90;;;;;;5107720;28;20739;-79
2022/10/18 03:01:26;;;;;;;116.05;24.83;;;13.10;99.90;;;;;;5108218;28;20774;-79
2022/10/18 03:03:52;;;;;;;192.27;29.52;;;13.00;99.90;;;;;;5108113;28;20411;-78
2022/10/18 03:06:17;;;;;;;209.77;32.13;;;13.00;99.90;;;;;;5109274;28;20404;-78
2022/10/18 03:08:43;;;;;;;162.32;27.77;;;13.00;99.90;;;;;;5109334;28;20514;-79
2022/10/18 03:11:09;;;;;;;173.18;29.33;;;13.00;99.90;;;;;;5107439;28;20404;-79
2022/10/18 03:13:35;;;;;;;153.93;26.38;;;13.00;99.90;;;;;;5108816;28;20475;-79
2022/10/18 03:16:01;;;;;;;155.90;28.37;;;13.00;99.90;;;;;;5108484;28;20393;-79
2022/10/18 03:18:26;;;;;;;150.68;26.40;;;13.00;99.90;;;;;;5109145;28;20520;-79
2022/10/18 03:20:52;;;;;;;170.10;29.03;;;12.90;99.90;;;;;;5107387;28;20404;-79
2022/10/18 03:23:18;;;;;;;185.77;30.00;;;12.90;99.90;;;;;;5107627;28;20415;-79
2022/10/18 03:25:44;;;;;;;164.97;27.43;;;12.90;99.90;;;;;;5107319;28;20404;-79
2022/10/18 03:28:09;;;;;;;117.57;25.10;;;12.90;99.90;;;;;;5107175;28;20403;-78
2022/10/18 03:30:35;;;;;;;90.90;22.13;;;12.90;99.90;;;;;;5107609;28;20400;-78
2022/10/18 03:33:00;;;;;;;240.87;33.13;;;12.90;99.90;;;;;;5107711;28;20404;-79
2022/10/18 03:35:26;;;;;;;183.13;27.60;;;12.90;99.90;;;;;;5107107;28;20565;-79
2022/10/18 03:37:52;;;;;;;239.23;32.03;;;12.90;99.90;;;;;;5106816;28;20940;-79
2022/10/18 03:40:17;;;;;;;82.80;20.50;;;12.90;99.90;;;;;;5108602;28;20392;-79
2022/10/18 03:42:43;;;;;;;137.60;25.27;;;12.90;99.90;;;;;;5108925;28;20401;-79
2022/10/18 03:45:09;;;;;;;159.25;26.85;;;12.90;99.90;;;;;;5108475;28;20420;-79
2022/10/18 03:47:34;;;;;;;185.77;29.80;;;12.90;99.90;;;;;;5108619;28;20828;-78
2022/10/18 03:50:00;;;;;;;144.73;25.65;;;12.90;99.90;;;;;;5107999;28;20399;-79
2022/10/18 03:52:25;;;;;;;165.83;26.27;;;12.90;99.90;;;;;;5108702;28;20415;-79
2022/10/18 03:54:51;;;;;;;120.47;23.17;;;12.80;99.90;;;;;;5108317;28;20454;-79
2022/10/18 03:57:17;;;;;;;170.93;28.08;;;12.80;99.90;;;;;;5108332;28;20412;-79
2022/10/18 03:59:42;;;;;;;128.73;24.27;;;12.90;99.90;;;;;;5107002;28;20427;-78
2022/10/18 04:02:08;;;;;;;176.93;26.35;;;12.80;99.90;;;;;;5106986;28;20489;-79
2022/10/18 04:04:33;;;;;;;177.27;27.33;;;12.80;99.90;;;;;;5102105;28;20398;-79
2022/10/18 04:06:59;;;;;;;155.60;24.30;;;12.80;99.90;;;;;;5098419;28;20500;-78
2022/10/18 04:09:25;;;;;;;161.87;24.97;;;12.80;99.90;;;;;;5106925;28;20420;-79
2022/10/18 04:11:51;;;;;;;104.28;20.65;;;12.80;99.90;;;;;;5108088;28;20416;-79
2022/10/18 04:14:16;;;;;;;98.45;20.75;;;12.80;99.90;;;;;;5106757;28;20442;-79
2022/10/18 04:16:42;;;;;;;182.63;26.80;;;12.70;99.90;;;;;;5097141;28;20907;-79
2022/10/18 04:19:08;;;;;;;137.90;23.95;;;12.70;99.90;;;;;;5105683;28;20421;-79
2022/10/18 04:21:33;;;;;;;109.70;21.43;;;12.70;99.90;;;;;;5107830;28;20427;-79
2022/10/18 04:23:59;;;;;;;147.45;25.80;;;12.70;99.90;;;;;;5107140;28;20408;-79
2022/10/18 04:26:24;;;;;;;138.50;23.60;;;12.70;99.90;;;;;;5110272;28;20423;-78
2022/10/18 04:28:50;;;;;;;123.78;22.42;;;12.70;99.90;;;;;;5112258;28;20398;-79
2022/10/18 04:31:15;;;;;;;92.07;20.70;;;12.60;99.90;;;;;;5112207;28;20857;-79
2022/10/18 04:33:41;;;;;;;115.53;22.20;;;12.70;99.90;;;;;;5110622;28;20400;-79
2022/10/18 04:36:07;;;;;;;199.88;28.58;;;12.60;99.90;;;;;;5111526;28;20440;-78
2022/10/18 04:38:33;;;;;;;85.50;20.35;;;12.60;99.90;;;;;;5111737;28;20770;-79
2022/10/18 04:40:58;;;;;;;81.13;19.67;;;12.60;99.90;;;;;;5110922;28;20411;-79
2022/10/18 04:43:24;;;;;;;103.65;20.75;;;12.60;99.90;;;;;;5093161;28;20404;-79
2022/10/18 04:45:50;;;;;;;129.63;21.90;;;12.60;99.90;;;;;;5112053;28;20413;-79
2022/10/18 04:48:16;;;;;;;168.55;25.90;;;12.60;99.90;;;;;;5111679;28;20509;-79
2022/10/18 04:50:42;;;;;;;114.27;21.40;;;12.60;99.90;;;;;;5111691;28;20897;-79
2022/10/18 04:53:08;;;;;;;96.10;19.97;;;12.50;99.90;;;;;;5110471;28;20404;-79
2022/10/18 04:55:33;;;;;;;123.82;21.33;;;12.50;99.90;;;;;;5110432;28;20814;-78
2022/10/18 04:57:59;;;;;;;142.83;24.23;;;12.50;99.90;;;;;;5110230;28;20435;-78
2022/10/18 05:00:25;;;;;;;105.30;22.15;;;12.50;99.90;;;;;;5110352;28;20437;-78
2022/10/18 05:02:56;;;;;;;86.57;20.37;;;12.50;99.90;;;;;;5110556;28;20762;-78
2022/10/18 05:05:22;;;;;;;83.13;19.25;;;12.50;99.90;;;;;;5110648;27;20405;-79
2022/10/18 05:07:48;;;;;;;120.10;21.92;;;12.50;99.90;;;;;;5109612;28;20408;-79
2022/10/18 05:10:13;;;;;;;73.33;18.50;;;12.40;99.90;;;;;;5111092;28;20396;-79
2022/10/18 05:12:39;;;;;;;95.20;20.93;;;12.40;99.90;;;;;;5110367;28;20482;-79
2022/10/18 05:15:05;;;;;;;92.63;20.40;;;12.40;99.90;;;;;;5110722;28;20407;-79
2022/10/18 05:17:30;;;;;;;137.20;24.52;;;12.40;99.90;;;;;;5108294;28;20428;-79
2022/10/18 05:19:56;;;;;;;87.13;20.07;;;12.40;99.90;;;;;;5109129;28;20408;-79
2022/10/18 05:22:21;;;;;;;93.63;19.52;;;12.40;99.90;;;;;;5110411;28;20862;-79
2022/10/18 05:24:47;;;;;;;101.97;19.80;;;12.40;99.90;;;;;;5110373;28;20465;-79
2022/10/18 05:27:13;;;;;;;101.68;19.17;;;12.40;99.90;;;;;;5108972;28;20758;-78
2022/10/18 05:29:38;;;;;;;98.10;18.63;;;12.40;99.90;;;;;;5109927;28;21262;-73
2022/10/18 05:32:04;;;;;;;117.23;21.40;;;12.30;99.90;;;;;;5103542;28;20428;-73
2022/10/18 05:34:30;;;;;;;73.00;17.27;;;12.30;99.90;;;;;;5105168;28;20444;-77
2022/10/18 05:36:57;;;;;;;84.45;19.00;;;12.30;99.90;;;;;;5099083;28;20412;-78
2022/10/18 05:39:22;;;;;;;48.42;15.63;;;12.30;99.90;;;;;;5108931;28;20924;-79
2022/10/18 05:41:48;;;;;;;44.23;15.53;;;12.30;99.90;;;;;;5109200;28;20404;-79
2022/10/18 05:44:14;;;;;;;113.75;20.50;;;12.20;99.90;;;;;;5109060;28;20405;-79
2022/10/18 05:46:39;;;;;;;60.63;16.40;;;12.30;99.90;;;;;;5106620;28;20408;-79
2022/10/18 05:49:05;;;;;;;63.20;16.63;;;12.20;99.90;;;;;;5102513;28;20507;-80
2022/10/18 05:51:31;;;;;;;91.60;19.53;;;12.20;99.90;;;;;;5109060;28;20412;-79
2022/10/18 05:53:57;;;;;;;72.38;17.00;;;12.20;99.90;;;;;;5109266;28;20958;-79
2022/10/18 05:56:23;;;;;;;72.85;17.33;;;12.20;99.90;;;;;;5109079;28;20408;-79
2022/10/18 05:58:50;;;;;;;79.55;18.20;;;12.10;99.90;;;;;;5109145;28;20431;-79
2022/10/18 06:01:16;;;;;;;106.30;20.05;;;12.10;99.90;;;;;;5108837;28;20404;-79
2022/10/18 06:03:42;;;;;;;88.22;19.40;;;12.10;99.90;;;;;;5101532;28;20462;-79
2022/10/18 06:06:10;;;;;;;60.37;15.27;;;12.10;99.90;;;;;;5091156;28;20820;-80
2022/10/18 06:08:36;;;;;;;65.05;16.17;;;12.10;99.90;;;;;;5109387;28;20412;-79
2022/10/18 06:11:10;;;;;;;65.88;16.77;;;12.10;99.90;;;;;;5109199;28;20469;-79
2022/10/18 06:13:44;;;;;;;99.35;19.40;;;12.10;99.90;;;;;;5109062;28;20963;-79
2022/10/18 06:16:11;;;;;;;48.72;15.45;;;12.00;99.90;;;;;;5101768;28;20416;-79
2022/10/18 06:18:36;;;;;;;100.60;18.48;;;12.00;99.90;;;;;;5108753;28;20601;-79
2022/10/18 06:21:02;;;;;;;70.13;16.48;;;12.00;99.90;;;;;;5104269;28;20515;-79
2022/10/18 06:23:28;;;;;;;102.25;18.58;;;12.00;99.90;;;;;;5102770;28;20408;-80
2022/10/18 06:25:59;;;;;;;110.23;20.33;;;12.00;99.90;;;;;;5107947;28;20487;-79
2022/10/18 06:28:24;;;;;;;90.68;18.20;;;12.00;99.90;;;;;;5103572;28;21361;-79
2022/10/18 06:30:50;;;;;;;91.30;17.38;;;12.00;99.90;;;;;;5108048;28;20392;-79
2022/10/18 06:33:16;;;;;;;83.43;15.63;;;12.00;99.90;;;;;;5109997;28;20457;-79
2022/10/18 06:35:41;;;;;;;95.20;17.75;;;12.00;99.90;;;;;;5108103;28;20409;-79
2022/10/18 06:38:07;;;;;;;64.50;15.67;;;11.90;99.90;;;;;;5108408;28;20841;-79
2022/10/18 06:40:36;;;;;;;89.43;16.55;;;11.90;99.90;;;;;;5091697;28;20459;-79
2022/10/18 06:43:05;;;;;;;51.25;14.68;;;12.00;99.90;;;;;;5108302;28;20976;-79
2022/10/18 06:45:32;;;;;;;84.13;16.70;;;11.90;99.90;;;;;;5107056;28;20974;-79
2022/10/18 06:47:58;;;;;;;70.72;16.65;;;11.90;99.90;;;;;;5108136;28;20396;-79
2022/10/18 06:50:23;;;;;;;52.00;15.23;;;11.90;99.90;;;;;;5107987;28;20464;-79
2022/10/18 06:52:51;;;;;;;128.97;21.27;;;11.90;99.90;;;;;;5108125;27;20384;-79
2022/10/18 06:55:17;;;;;;;85.75;16.25;;;11.90;99.90;;;;;;5087068;28;20402;-79
2022/10/18 06:57:42;;;;;;;41.43;14.33;;;11.90;99.90;;;;;;5088167;28;20430;-79
2022/10/18 07:00:08;;;;;;;66.13;15.10;;;11.90;99.90;;;;;;5093464;27;20394;-79
2022/10/18 07:02:34;;;;;;;52.28;14.98;;;11.80;99.90;;;;;;5104310;28;20757;-80
2022/10/18 07:05:00;;;;;;;76.73;17.13;;;11.80;99.90;;;;;;5107994;28;20408;-79
2022/10/18 07:07:25;;;;;;;72.95;16.55;;;11.80;99.90;;;;;;5107448;28;20424;-79
2022/10/18 07:09:51;;;;;;;41.67;13.60;;;11.80;99.90;;;;;;5102070;28;20494;-79
2022/10/18 07:12:16;;;;;;;42.17;13.98;;;11.90;99.90;;;;;;5108821;28;20766;-79
2022/10/18 07:14:42;;;;;;;71.07;15.13;;;11.80;99.90;;;;;;5101719;27;20410;-79
2022/10/18 07:17:08;;;;;;;40.58;12.55;;;11.90;99.90;;;;;;5103695;28;20417;-79
2022/10/18 07:19:34;;;;;;;37.67;12.45;;;11.90;99.90;;;;;;5107413;28;20754;-74
2022/10/18 07:21:59;;;;;;;75.70;16.23;;;11.90;99.90;;;;;;5107042;28;20408;-77
2022/10/18 07:24:25;;;;;;;47.80;13.10;;;11.90;99.90;;;;;;5108759;28;20481;-79
2022/10/18 07:26:50;;;;;;;45.13;12.93;;;11.90;99.90;;;;;;5090131;28;20489;-79
2022/10/18 07:29:16;;;;;;;34.53;12.43;;;11.90;99.90;;;;;;5106378;28;20457;-78
2022/10/18 07:31:41;;;;;;;39.85;12.68;;;12.00;99.90;;;;;;5107290;28;20407;-78
2022/10/18 07:34:11;;;;;;;34.30;11.73;;;12.00;99.90;;;;;;5107404;28;20404;-79
2022/10/18 07:36:36;;;;;;;36.95;12.65;;;12.00;99.90;;;;;;5106724;28;20405;-78
2022/10/18 07:39:02;;;;;;;30.88;11.82;;;12.00;99.90;;;;;;5107771;28;20845;-78
2022/10/18 07:41:28;;;;;;;40.42;11.95;;;12.10;99.90;;;;;;5107318;28;20404;-78
2022/10/18 07:43:54;;;;;;;25.92;10.90;;;12.10;99.90;;;;;;5108509;28;20402;-78
2022/10/18 07:46:21;;;;;;;25.07;10.20;;;12.10;99.90;;;;;;5112297;27;20406;-79
2022/10/18 07:48:47;;;;;;;19.15;9.57;;;12.10;99.90;;;;;;5107617;28;20769;-79
2022/10/18 07:51:13;;;;;;;20.58;9.52;;;12.10;99.90;;;;;;5094168;28;20501;-78
2022/10/18 07:53:39;;;;;;;21.05;9.00;;;12.20;99.90;;;;;;5107445;28;20404;-78
2022/10/18 07:56:14;;;;;;;21.38;9.73;;;12.20;99.90;;;;;;5107707;28;20747;-78
2022/10/18 07:58:41;;;;;;;22.38;9.25;;;12.20;99.90;;;;;;5108593;28;20420;-78
2022/10/18 08:01:07;;;;;;;18.98;9.57;;;12.20;99.90;;;;;;5106219;28;20889;-79
2022/10/18 08:03:34;;;;;;;17.98;8.73;;;12.20;99.90;;;;;;5107360;28;20400;-78
2022/10/18 08:05:59;;;;;;;20.45;9.88;;;12.20;99.90;;;;;;5107088;28;20409;-75
2022/10/18 08:08:25;;;;;;;17.60;9.30;;;12.20;99.90;;;;;;5107225;28;20488;-73
2022/10/18 08:10:51;;;;;;;17.40;9.65;;;12.10;99.90;;;;;;5108149;28;20401;-76
2022/10/18 08:13:17;;;;;;;16.48;8.73;;;12.10;99.90;;;;;;5106990;28;20401;-78
2022/10/18 08:15:43;;;;;;;18.17;8.60;;;12.10;99.90;;;;;;5106972;28;20408;-78
2022/10/18 08:18:10;;;;;;;16.30;8.70;;;12.10;99.90;;;;;;5089338;28;20942;-78
2022/10/18 08:20:35;;;;;;;17.33;8.40;;;12.10;99.90;;;;;;5105888;28;20518;-78
2022/10/18 08:23:05;;;;;;;17.90;8.80;;;12.20;99.90;;;;;;5106891;28;20404;-78
2022/10/18 08:25:30;;;;;;;21.13;9.65;;;12.10;99.90;;;;;;5104683;28;20445;-78
2022/10/18 08:27:56;;;;;;;17.50;9.10;;;12.20;99.90;;;;;;5106153;28;20404;-78
2022/10/18 08:30:22;;;;;;;20.05;9.57;;;12.20;99.90;;;;;;5106878;28;20491;-78
2022/10/18 08:32:48;;;;;;;18.83;9.70;;;12.30;99.90;;;;;;5106760;28;20484;-78
2022/10/18 08:35:13;;;;;;;19.93;9.43;;;12.30;99.90;;;;;;5106244;28;21107;-79
2022/10/18 08:37:39;;;;;;;20.05;9.18;;;12.30;99.90;;;;;;5101548;28;20473;-78
2022/10/18 08:40:05;;;;;;;20.20;9.13;;;12.40;99.90;;;;;;5106791;28;20438;-79
2022/10/18 08:42:56;;;;;;;19.13;8.80;;;12.40;99.90;;;;;;5106726;28;20439;-78
2022/10/18 08:45:22;;;;;;;17.90;9.05;;;12.50;99.90;;;;;;5110063;28;20405;-79
2022/10/18 08:47:50;;;;;;;19.17;9.05;;;12.50;99.90;;;;;;5101586;28;20743;-78
2022/10/18 08:50:18;;;;;;;19.55;9.65;;;12.60;99.90;;;;;;5106568;28;20933;-78
2022/10/18 08:53:23;;;;;;;19.67;8.02;;;12.60;99.90;;;;;;5105590;28;21569;-79
2022/10/18 08:55:59;;;;;;;21.98;9.73;;;12.80;99.90;;;;;;5090872;28;20426;-79
2022/10/18 08:58:29;;;;;;;14.98;6.10;;;13.60;99.90;;;;;;5098696;28;20465;-79
2022/10/18 09:01:04;;;;;;;18.87;5.33;;;14.80;99.90;;;;;;5107980;28;20446;-79
2022/10/18 09:03:46;;;;;;;11.25;4.28;;;15.80;99.90;;;;;;5105253;28;20428;-79
2022/10/18 09:06:19;;;;;;;12.38;3.42;;;16.90;99.90;;;;;;5101211;28;21014;-80
2022/10/18 09:08:59;;;;;;;8.73;2.17;;;17.80;99.90;;;;;;5102769;27;20426;-79
2022/10/18 09:11:48;;;;;;;10.70;2.47;;;18.60;99.90;;;;;;5110041;27;20489;-76
2022/10/18 09:14:48;;;;;;;9.15;2.05;;;19.30;99.90;;;;;;5106075;27;20428;-76
2022/10/18 09:17:32;;;;;;;8.52;1.50;;;19.90;99.90;;;;;;5113810;27;20471;-77
2022/10/18 09:20:10;;;;;;;9.05;1.60;;;20.60;99.90;;;;;;5100454;28;20505;-78
2022/10/18 09:23:13;;;;;;;9.57;1.42;;;21.10;99.90;;;;;;5103795;27;20465;-78
2022/10/18 09:25:48;;;;;;;7.93;1.30;;;21.50;99.90;;;;;;5093059;28;20415;-79
2022/10/18 09:28:23;;;;;;;9.93;1.40;;;21.90;99.90;;;;;;5111123;27;20396;-79
2022/10/18 09:31:17;;;;;;;9.32;1.70;;;22.10;99.90;;;;;;5099054;28;20502;-79
2022/10/18 09:33:50;;;;;;;7.25;1.20;;;22.40;99.90;;;;;;5108729;28;20430;-79
2022/10/18 09:36:21;;;;;;;10.23;1.90;;;22.70;99.90;;;;;;5101238;27;20420;-77
2022/10/18 09:38:58;;;;;;;10.70;1.70;;;22.90;99.90;;;;;;5104684;27;21018;-77
2022/10/18 09:41:27;;;;;;;9.27;1.50;;;23.10;99.90;;;;;;5092674;27;20444;-77
2022/10/18 09:44:08;;;;;;;9.20;1.25;;;22.90;99.90;;;;;;5117825;27;20976;-77
2022/10/18 09:46:39;;;;;;;10.77;1.88;;;22.90;99.90;;;;;;5113222;27;20401;-78
2022/10/18 09:49:12;;;;;;;8.15;1.17;;;22.90;99.90;;;;;;5117757;27;20523;-78
2022/10/18 09:51:41;;;;;;;10.35;1.73;;;23.00;99.90;;;;;;5110137;27;20396;-78
2022/10/18 09:54:22;;;;;;;8.27;1.55;;;23.30;99.90;;;;;;5104720;28;20426;-78
2022/10/18 09:56:50;;;;;;;11.32;1.70;;;23.40;99.90;;;;;;5101448;28;20405;-78
2022/10/18 09:59:27;;;;;;;10.40;1.40;;;23.50;99.90;;;;;;5108694;28;20901;-77
2022/10/18 10:01:53;;;;;;;10.48;1.63;;;23.70;99.90;;;;;;5114222;27;20930;-77
2022/10/18 10:04:22;;;;;;;9.30;1.20;;;23.50;99.90;;;;;;5101433;28;20416;-78
2022/10/18 10:06:50;;;;;;;10.05;1.73;;;23.60;99.90;;;;;;5092476;28;20439;-78
2022/10/18 10:09:17;;;;;;;11.73;1.60;;;23.60;99.90;;;;;;5106905;28;20413;-79
2022/10/18 10:11:50;;;;;;;11.13;1.50;;;23.80;99.90;;;;;;5106415;28;20996;-77
2022/10/18 10:14:29;;;;;;;11.02;1.60;;;24.40;99.90;;;;;;5108905;28;20404;-77
2022/10/18 10:17:05;;;;;;;9.77;1.70;;;24.90;99.90;;;;;;5108789;28;20411;-78
2022/10/18 10:19:57;;;;;;;9.10;1.63;;;24.90;99.90;;;;;;5109417;28;20457;-77
2022/10/18 10:22:34;;;;;;;11.55;1.65;;;25.10;99.90;;;;;;5108147;28;20413;-77
2022/10/18 10:24:59;;;;;;;12.88;1.85;;;25.40;99.90;;;;;;5109561;28;20415;-77
2022/10/18 10:27:29;;;;;;;7.87;1.27;;;25.50;99.90;;;;;;5109534;28;21026;-77
2022/10/18 10:30:00;;;;;;;11.95;1.50;;;24.90;99.90;;;;;;5110022;28;20419;-78
2022/10/18 10:32:29;;;;;;;10.82;1.70;;;25.10;99.90;;;;;;5109725;28;20397;-77
2022/10/18 10:34:55;;;;;;;9.65;1.33;;;24.80;99.90;;;;;;5109656;28;20417;-77
2022/10/18 10:37:32;;;;;;;10.30;1.27;;;24.10;99.90;;;;;;5100310;28;20959;-77
2022/10/18 10:40:15;;;;;;;11.43;1.60;;;23.20;99.90;;;;;;5100431;27;20506;-76
2022/10/18 10:43:04;;;;;;;9.18;1.52;;;22.70;99.90;;;;;;5086826;28;20401;-77
2022/10/18 10:45:40;;;;;;;9.48;1.48;;;22.60;99.90;;;;;;5095923;27;20501;-77
2022/10/18 10:48:15;;;;;;;15.00;1.58;;;21.80;99.90;;;;;;5093288;28;20414;-76
2022/10/18 10:50:50;;;;;;;8.70;1.43;;;21.30;99.90;;;;;;5096528;27;20431;-77
2022/10/18 10:53:25;;;;;;;10.50;1.40;;;21.30;99.90;;;;;;5092894;28;20745;-76
2022/10/18 10:55:53;;;;;;;10.13;1.70;;;20.90;99.90;;;;;;5099233;28;20477;-76
2022/10/18 10:58:20;;;;;;;10.20;1.80;;;20.20;99.90;;;;;;5088671;28;20858;-76
2022/10/18 11:00:45;;;;;;;10.18;1.30;;;19.60;99.90;;;;;;5098651;27;20416;-76
2022/10/18 11:03:17;;;;;;;10.90;1.77;;;20.20;99.90;;;;;;5102196;28;21214;-76
2022/10/18 11:05:54;;;;;;;8.63;1.50;;;21.10;99.90;;;;;;5102490;27;20411;-76
2022/10/18 11:08:26;;;;;;;9.00;1.35;;;22.20;99.90;;;;;;5107824;28;20412;-76
2022/10/18 11:10:51;;;;;;;8.23;1.15;;;22.90;99.90;;;;;;5094932;28;20597;-76
2022/10/18 11:13:34;;;;;;;10.95;1.70;;;23.70;99.90;;;;;;5098756;28;20564;-77
2022/10/18 11:16:07;;;;;;;13.10;1.50;;;24.20;99.90;;;;;;5103148;27;20769;-77
2022/10/18 11:18:36;;;;;;;9.90;1.40;;;23.50;99.60;;;;;;5108512;27;20420;-76
2022/10/18 11:21:10;;;;;;;9.17;1.40;;;22.30;99.20;;;;;;5100801;28;20494;-76
2022/10/18 11:23:38;;;;;;;8.55;1.70;;;22.00;99.90;;;;;;5107389;27;20469;-76
2022/10/18 11:26:17;;;;;;;10.32;1.33;;;22.50;99.90;;;;;;5095646;28;20404;-76
2022/10/18 11:29:21;;;;;;;9.13;1.48;;;23.30;99.90;;;;;;5107921;28;20453;-76
2022/10/18 11:31:57;;;;;;;7.32;1.00;;;23.20;99.10;;;;;;5107713;28;20468;-76
2022/10/18 11:34:32;;;;;;;9.68;1.75;;;22.80;98.50;;;;;;5100451;28;20416;-76
2022/10/18 11:37:16;;;;;;;8.35;1.27;;;22.40;98.70;;;;;;5107909;27;20442;-76
2022/10/18 11:40:12;;;;;;;10.82;1.30;;;22.30;98.90;;;;;;5104920;27;20433;-73
2022/10/18 11:42:47;;;;;;;6.80;1.00;;;22.50;99.80;;;;;;5104485;27;20411;-75
2022/10/18 11:45:30;;;;;;;9.90;1.42;;;23.40;98.80;;;;;;5107324;27;20752;-75
2022/10/18 11:48:34;;;;;;;9.43;1.40;;;23.60;96.40;;;;;;5106293;28;20511;-76
2022/10/18 11:51:24;;;;;;;8.18;1.27;;;23.80;96.10;;;;;;5099807;28;20508;-76
2022/10/18 11:54:04;;;;;;;10.68;1.40;;;23.50;95.30;;;;;;5104296;28;20427;-76
2022/10/18 11:56:39;;;;;;;11.60;1.40;;;23.70;95.90;;;;;;5102678;28;20446;-76
2022/10/18 11:59:17;;;;;;;9.32;1.17;;;24.10;96.40;;;;;;5104433;28;20489;-76
2022/10/18 12:01:53;;;;;;;7.53;1.13;;;24.50;94.10;;;;;;5094841;28;20412;-76
2022/10/18 12:04:26;;;;;;;7.75;1.50;;;24.70;94.40;;;;;;5110120;28;20407;-76
2022/10/18 12:06:55;;;;;;;7.05;0.90;;;24.80;92.40;;;;;;5104454;28;20514;-76
2022/10/18 12:09:38;;;;;;;7.57;1.10;;;24.20;91.10;;;;;;5109212;28;20409;-76
2022/10/18 12:12:14;;;;;;;6.63;1.08;;;23.70;92.70;;;;;;5107570;28;20469;-76
2022/10/18 12:15:01;;;;;;;6.07;1.33;;;23.90;92.30;;;;;;5099541;28;20398;-76
2022/10/18 12:17:36;;;;;;;10.15;1.17;;;23.80;91.30;;;;;;5107533;28;20434;-76
2022/10/18 12:20:40;;;;;;;6.63;1.15;;;23.80;92.00;;;;;;5113458;28;20408;-77
2022/10/18 12:23:20;;;;;;;7.78;1.30;;;24.40;92.80;;;;;;5107554;28;20930;-77
2022/10/18 12:25:50;;;;;;;7.60;1.02;;;24.80;91.60;;;;;;5108990;27;20400;-76
2022/10/18 12:28:29;;;;;;;7.72;1.42;;;25.00;91.10;;;;;;5109540;28;20888;-76
2022/10/18 12:31:11;;;;;;;8.43;1.38;;;25.30;91.10;;;;;;5108502;28;20416;-76
2022/10/18 12:33:45;;;;;;;7.13;1.00;;;25.60;90.30;;;;;;5116198;28;20404;-76
2022/10/18 12:36:25;;;;;;;8.57;1.27;;;25.60;86.30;;;;;;5101376;28;20854;-77
2022/10/18 12:39:05;;;;;;;11.13;1.20;;;25.50;88.20;;;;;;5104483;28;20428;-77
2022/10/18 12:41:33;;;;;;;11.17;1.30;;;25.70;88.40;;;;;;5106492;28;20400;-76
2022/10/18 12:44:05;;;;;;;7.95;1.60;;;25.80;88.60;;;;;;5107023;28;20415;-77
2022/10/18 12:46:49;;;;;;;8.80;1.23;;;26.30;90.00;;;;;;5107931;28;20408;-76